< < Back
Terminal Aerodrome Forecast


Current Version              Previous Versions:   1  2  3  4  5  6  7  8  9  

Terminal Aerodrome Forecast

079
FTUS44 KMOB 291753
TAFPNS
TAF
KPNS 291753Z 2918/3018 10006KT P6SM VCTS FEW040CB BKN250
     FM300300 14004KT P6SM SCT250
     FM301000 05002KT 5SM BR SCT250
     FM301300 02004KT P6SM SCT250=

Latest METAR

089
SAUS70 KWBC 301300 RRL
MTRPNS
METAR KPNS 301253Z 00000KT 10SM CLR 24/21 A3005 RMK AO2 SLP176
T02440211


USA.gov is the U.S. government's official web portal to all federal, state and local government web resources and services.